Ermakovskoe, Russia
Current Conditions -  °F | °C
As of 3:00 AM on Tuesday 25 Nov 2014 (Local Time) from UNAA Reporting Station
Overcast Overcast  
Wind Chill: -10°   Ceiling: 10000
Heat Index:   Visibility: 6mi
Dew Point: -9°   Wind: 4mph
Humidity: 66%   Direction: NA
Pressure: 30"   Gusts: NA
Location:  53.3°N, 92.42°E
Report Text: UNAA 242000Z VRB02MPS 9999 SCT030CB OVC100 M18/M23 Q1016 NOSIGRMK QFE739 52190055
Loading
Personal Weather Stations






























Interactive Weather Map New forecast layout! Learn more

10-Day Weather Forecast

Advertisements
Track Severe Weather on mobile